Time;durP1;ratioP1;P1;durP2;ratioP2;P2;SDS_P1;SDS_P2;PMS_P1;PMS_P2;Temp;Humidity;BMP_temperature;BMP_pressure;BME280_temperature;BME280_humidity;BME280_pressure;Samples;Min_cycle;Max_cycle;Signal;HPM_P1;HPM_P2
2022/01/10 00:00:22;;;;;;;48.50;14.93;;;;;;;;;;5029012;28;20284;-67
2022/01/10 00:02:50;;;;;;;33.90;14.03;;;;;;;;;;5019784;28;20293;-67
2022/01/10 00:05:16;;;;;;;42.90;15.30;;;;;;;;;;5026932;28;20678;-67
2022/01/10 00:07:42;;;;;;;36.83;14.30;;;;;;;;;;5028872;28;21491;-66
2022/01/10 00:10:09;;;;;;;41.87;15.97;;;;;;;;;;5020395;28;20296;-67
2022/01/10 00:12:35;;;;;;;49.47;15.37;;;;;;;;;;5029165;28;20295;-67
2022/01/10 00:15:01;;;;;;;43.17;14.43;;;;;;;;;;5017885;28;20384;-67
2022/01/10 00:17:27;;;;;;;49.87;15.77;;;;;;;;;;5027224;28;20308;-68
2022/01/10 00:19:53;;;;;;;44.83;16.13;;;;;;;;;;5020650;28;20732;-67
2022/01/10 00:22:20;;;;;;;41.07;17.53;;;;;;;;;;5026837;28;20387;-67
2022/01/10 00:24:46;;;;;;;50.97;17.37;;;;;;;;;;5020945;28;20845;-68
2022/01/10 00:27:12;;;;;;;51.70;17.87;;;;;;;;;;5023999;28;20308;-68
2022/01/10 00:29:38;;;;;;;46.30;19.33;;;;;;;;;;5015582;28;20301;-68
2022/01/10 00:32:04;;;;;;;51.93;18.00;;;;;;;;;;5024211;28;20046;-67
2022/01/10 00:34:30;;;;;;;55.77;18.00;;;;;;;;;;5020154;28;20367;-68
2022/01/10 00:36:56;;;;;;;56.80;20.43;;;;;;;;;;5020988;28;20814;-67
2022/01/10 00:39:22;;;;;;;51.23;19.47;;;;;;;;;;5027696;28;20062;-67
2022/01/10 00:41:48;;;;;;;43.37;18.17;;;;;;;;;;5028406;28;20308;-67
2022/01/10 00:44:14;;;;;;;52.23;19.57;;;;;;;;;;5026187;28;20721;-68
2022/01/10 00:46:41;;;;;;;54.10;18.07;;;;;;;;;;5021618;28;20296;-67
2022/01/10 00:49:07;;;;;;;54.30;18.13;;;;;;;;;;5027917;28;20292;-67
2022/01/10 00:51:33;;;;;;;56.70;19.60;;;;;;;;;;5028084;28;20306;-67
2022/01/10 00:53:59;;;;;;;55.77;19.87;;;;;;;;;;5020241;28;20299;-67
2022/01/10 00:56:25;;;;;;;63.03;21.23;;;;;;;;;;5025081;28;21478;-67
2022/01/10 00:58:51;;;;;;;44.23;19.30;;;;;;;;;;5021157;28;20284;-67
2022/01/10 01:01:18;;;;;;;48.90;18.23;;;;;;;;;;5028175;28;20056;-67
2022/01/10 01:03:44;;;;;;;50.60;18.27;;;;;;;;;;5028217;28;20292;-66
2022/01/10 01:06:11;;;;;;;66.50;21.67;;;;;;;;;;5027079;28;20323;-68
2022/01/10 01:08:37;;;;;;;54.17;19.33;;;;;;;;;;5023037;28;20316;-67
2022/01/10 01:24:01;;;;;;;66.97;22.90;;;;;;;;;;5028006;28;20371;-66
2022/01/10 01:26:30;;;;;;;54.80;21.73;;;;;;;;;;5027546;28;20292;-67
2022/01/10 01:28:56;;;;;;;64.53;23.53;;;;;;;;;;5027998;28;20296;-66
2022/01/10 01:31:22;;;;;;;61.17;23.37;;;;;;;;;;5019425;28;20292;-66
2022/01/10 01:33:49;;;;;;;61.93;23.57;;;;;;;;;;5028019;28;20637;-66
2022/01/10 01:36:24;;;;;;;77.37;24.93;;;;;;;;;;5026832;28;20042;-66
2022/01/10 01:38:50;;;;;;;76.83;25.77;;;;;;;;;;5020874;28;20338;-67
2022/01/10 01:43:50;;;;;;;69.53;25.47;;;;;;;;;;5025646;28;20304;-66
2022/01/10 01:46:17;;;;;;;66.50;22.60;;;;;;;;;;5018418;28;20292;-66
2022/01/10 01:48:43;;;;;;;62.27;23.67;;;;;;;;;;5020198;28;21344;-66
2022/01/10 01:51:09;;;;;;;61.07;21.23;;;;;;;;;;5021559;28;20375;-66
2022/01/10 01:53:38;;;;;;;72.70;24.73;;;;;;;;;;5018279;28;20354;-66
2022/01/10 01:56:05;;;;;;;66.73;23.70;;;;;;;;;;5027147;28;20315;-66
2022/01/10 01:58:32;;;;;;;62.97;22.80;;;;;;;;;;5027484;28;20293;-66
2022/01/10 02:00:58;;;;;;;68.70;25.57;;;;;;;;;;5021855;28;20285;-66
2022/01/10 02:03:24;;;;;;;67.47;25.23;;;;;;;;;;5024111;28;20292;-66
2022/01/10 02:05:50;;;;;;;68.77;26.60;;;;;;;;;;5028165;28;20419;-66
2022/01/10 02:08:16;;;;;;;77.00;28.00;;;;;;;;;;5030780;28;20523;-66
2022/01/10 02:10:42;;;;;;;79.60;26.00;;;;;;;;;;5022155;28;20302;-66
2022/01/10 02:13:08;;;;;;;74.40;27.33;;;;;;;;;;5023789;28;20292;-66
2022/01/10 02:15:57;;;;;;;71.77;27.70;;;;;;;;;;5023231;28;20350;-66
2022/01/10 02:18:24;;;;;;;78.27;27.30;;;;;;;;;;5031168;28;20053;-66
2022/01/10 02:20:50;;;;;;;85.27;26.97;;;;;;;;;;5030630;28;20296;-66
2022/01/10 02:23:16;;;;;;;70.83;25.40;;;;;;;;;;5022861;28;20367;-66
2022/01/10 02:25:43;;;;;;;66.77;23.93;;;;;;;;;;5022650;28;20292;-66
2022/01/10 02:28:09;;;;;;;71.73;25.40;;;;;;;;;;5030673;28;20336;-66
2022/01/10 02:30:35;;;;;;;70.37;24.83;;;;;;;;;;5022286;28;20296;-65
2022/01/10 02:33:02;;;;;;;59.87;22.77;;;;;;;;;;5023484;28;20292;-66
2022/01/10 02:35:32;;;;;;;67.30;25.70;;;;;;;;;;5030479;28;20288;-66
2022/01/10 02:37:58;;;;;;;77.60;25.43;;;;;;;;;;5021119;28;21269;-66
2022/01/10 02:40:27;;;;;;;69.33;24.50;;;;;;;;;;5030451;28;20332;-66
2022/01/10 02:42:53;;;;;;;61.03;24.33;;;;;;;;;;5026910;28;20306;-65
2022/01/10 02:45:19;;;;;;;66.53;23.03;;;;;;;;;;5034660;28;20293;-65
2022/01/10 02:47:47;;;;;;;63.47;23.60;;;;;;;;;;5019966;28;20723;-65
2022/01/10 02:50:14;;;;;;;64.13;24.07;;;;;;;;;;5030613;28;20864;-66
2022/01/10 02:52:40;;;;;;;66.07;24.47;;;;;;;;;;5012071;28;20324;-65
2022/01/10 02:55:07;;;;;;;78.33;24.80;;;;;;;;;;5013418;28;20288;-65
2022/01/10 02:57:34;;;;;;;75.10;24.93;;;;;;;;;;5022730;28;20686;-66
2022/01/10 03:00:00;;;;;;;68.77;25.87;;;;;;;;;;5029540;28;20292;-65
2022/01/10 03:02:31;;;;;;;79.37;25.00;;;;;;;;;;5022813;28;20295;-65
2022/01/10 03:04:57;;;;;;;83.67;27.00;;;;;;;;;;5029495;28;20304;-66
2022/01/10 03:07:23;;;;;;;95.93;29.10;;;;;;;;;;5029107;28;20307;-65
2022/01/10 03:09:52;;;;;;;90.10;29.93;;;;;;;;;;5021479;28;20296;-65
2022/01/10 03:12:18;;;;;;;81.17;28.33;;;;;;;;;;5029799;28;20319;-65
2022/01/10 03:14:44;;;;;;;89.27;28.47;;;;;;;;;;5020720;28;20337;-66
2022/01/10 03:17:11;;;;;;;74.83;26.50;;;;;;;;;;5012153;28;20832;-66
2022/01/10 03:19:38;;;;;;;75.77;25.97;;;;;;;;;;5023014;28;20292;-65
2022/01/10 03:22:05;;;;;;;69.50;25.37;;;;;;;;;;5020573;28;20301;-65
2022/01/10 03:24:31;;;;;;;75.57;24.47;;;;;;;;;;5022117;28;20288;-66
2022/01/10 03:26:57;;;;;;;80.83;27.00;;;;;;;;;;5021690;28;20311;-65
2022/01/10 03:29:23;;;;;;;74.77;27.30;;;;;;;;;;5029593;28;20067;-65
2022/01/10 03:31:49;;;;;;;75.53;27.07;;;;;;;;;;5020992;28;20296;-65
2022/01/10 03:34:15;;;;;;;68.90;28.73;;;;;;;;;;5028544;28;20806;-65
2022/01/10 03:36:42;;;;;;;77.13;27.27;;;;;;;;;;5022645;28;20346;-65
2022/01/10 03:39:09;;;;;;;69.23;25.07;;;;;;;;;;5028640;28;20363;-66
2022/01/10 03:41:36;;;;;;;67.17;24.37;;;;;;;;;;5028601;28;20288;-65
2022/01/10 03:44:02;;;;;;;73.60;24.20;;;;;;;;;;5029670;28;20284;-66
2022/01/10 03:46:28;;;;;;;63.20;23.57;;;;;;;;;;5028359;28;20770;-65
2022/01/10 03:48:54;;;;;;;65.60;25.37;;;;;;;;;;5019691;28;20295;-65
2022/01/10 03:51:20;;;;;;;67.40;23.73;;;;;;;;;;5028029;28;20678;-65
2022/01/10 03:53:46;;;;;;;77.67;25.13;;;;;;;;;;5029657;28;20284;-65
2022/01/10 03:56:13;;;;;;;68.50;25.00;;;;;;;;;;5020210;28;20342;-66
2022/01/10 03:58:39;;;;;;;71.40;25.40;;;;;;;;;;5020981;28;20347;-65
2022/01/10 04:01:08;;;;;;;67.57;24.23;;;;;;;;;;5035451;28;20284;-65
2022/01/10 04:03:34;;;;;;;64.80;27.07;;;;;;;;;;5024485;28;20132;-65
2022/01/10 04:06:00;;;;;;;82.43;28.27;;;;;;;;;;5025519;28;20351;-65
2022/01/10 04:08:26;;;;;;;102.43;30.83;;;;;;;;;;5029637;28;20304;-66
2022/01/10 04:10:53;;;;;;;193.83;40.37;;;;;;;;;;5034304;28;20341;-64
2022/01/10 04:13:19;;;;;;;127.93;33.20;;;;;;;;;;5035750;28;20498;-65
2022/01/10 04:15:45;;;;;;;151.60;34.37;;;;;;;;;;5034624;28;20291;-65
2022/01/10 04:18:11;;;;;;;274.80;43.97;;;;;;;;;;5036744;28;20323;-65
2022/01/10 04:20:37;;;;;;;148.87;29.87;;;;;;;;;;5040174;28;20338;-65
2022/01/10 04:23:03;;;;;;;74.70;27.37;;;;;;;;;;5035616;28;20346;-66
2022/01/10 04:25:29;;;;;;;88.73;27.73;;;;;;;;;;5039670;28;20526;-65
2022/01/10 04:27:55;;;;;;;76.07;24.00;;;;;;;;;;5026556;28;20818;-65
2022/01/10 04:30:21;;;;;;;81.97;24.60;;;;;;;;;;5026206;28;20288;-65
2022/01/10 04:32:47;;;;;;;79.83;24.30;;;;;;;;;;5027052;28;20288;-67
2022/01/10 04:35:14;;;;;;;85.63;24.60;;;;;;;;;;5028053;28;20349;-65
2022/01/10 04:37:40;;;;;;;72.43;21.90;;;;;;;;;;5024251;28;20124;-65
2022/01/10 04:40:07;;;;;;;61.50;21.30;;;;;;;;;;5025390;28;20371;-65
2022/01/10 04:42:33;;;;;;;61.67;21.00;;;;;;;;;;5019447;28;20045;-65
2022/01/10 04:44:59;;;;;;;143.87;27.53;;;;;;;;;;5021850;28;20323;-65
2022/01/10 04:47:25;;;;;;;100.67;27.57;;;;;;;;;;5025603;28;20663;-64
2022/01/10 04:50:07;;;;;;;63.27;20.83;;;;;;;;;;5027985;28;20402;-64
2022/01/10 04:52:33;;;;;;;56.33;20.23;;;;;;;;;;5027965;28;20291;-65
2022/01/10 04:55:00;;;;;;;58.03;23.53;;;;;;;;;;5026607;28;20703;-65
2022/01/10 04:57:26;;;;;;;59.23;22.30;;;;;;;;;;5025639;28;20303;-65
2022/01/10 04:59:52;;;;;;;54.50;21.10;;;;;;;;;;5027457;28;20327;-65
2022/01/10 05:02:18;;;;;;;57.93;24.37;;;;;;;;;;5027965;28;20316;-65
2022/01/10 05:04:45;;;;;;;83.97;31.27;;;;;;;;;;5027880;28;20324;-65
2022/01/10 05:07:11;;;;;;;101.80;34.03;;;;;;;;;;5025744;28;20399;-65
2022/01/10 05:09:37;;;;;;;249.20;45.73;;;;;;;;;;5030888;28;20288;-65
2022/01/10 05:12:03;;;;;;;312.30;51.63;;;;;;;;;;5019994;28;20804;-65
2022/01/10 05:14:29;;;;;;;252.53;42.87;;;;;;;;;;5022772;28;20048;-64
2022/01/10 05:16:55;;;;;;;255.07;38.00;;;;;;;;;;5025950;28;20295;-65
2022/01/10 05:19:21;;;;;;;311.77;46.90;;;;;;;;;;5030372;28;20335;-65
2022/01/10 05:21:47;;;;;;;231.10;39.93;;;;;;;;;;5026797;28;20037;-65
2022/01/10 05:24:13;;;;;;;166.63;34.67;;;;;;;;;;5026598;28;20046;-65
2022/01/10 05:26:39;;;;;;;246.73;41.07;;;;;;;;;;5027232;28;20116;-64
2022/01/10 05:29:05;;;;;;;155.37;32.43;;;;;;;;;;5031552;28;20504;-64
2022/01/10 05:31:34;;;;;;;112.13;28.40;;;;;;;;;;5020096;28;20588;-65
2022/01/10 05:34:01;;;;;;;53.43;23.70;;;;;;;;;;5021501;28;20288;-65
2022/01/10 05:36:27;;;;;;;48.87;22.43;;;;;;;;;;5026760;28;20391;-65
2022/01/10 05:38:53;;;;;;;45.90;20.70;;;;;;;;;;5027927;28;20651;-65
2022/01/10 05:41:22;;;;;;;53.43;24.57;;;;;;;;;;5031417;28;20288;-65
2022/01/10 05:43:48;;;;;;;56.70;23.10;;;;;;;;;;5031484;28;20288;-65
2022/01/10 05:46:16;;;;;;;57.33;27.00;;;;;;;;;;5031775;28;20686;-65
2022/01/10 05:48:47;;;;;;;46.83;22.07;;;;;;;;;;5020176;28;20353;-64
2022/01/10 05:51:14;;;;;;;54.07;23.80;;;;;;;;;;5033260;28;20288;-65
2022/01/10 05:53:40;;;;;;;53.13;26.30;;;;;;;;;;5023424;28;20802;-64
2022/01/10 05:56:06;;;;;;;55.07;26.63;;;;;;;;;;5031588;28;20404;-65
2022/01/10 05:58:32;;;;;;;51.53;25.13;;;;;;;;;;5031407;28;20307;-64
2022/01/10 06:00:58;;;;;;;66.47;27.60;;;;;;;;;;5031557;28;20292;-65
2022/01/10 06:03:24;;;;;;;62.97;27.80;;;;;;;;;;5038935;28;20445;-65
2022/01/10 06:05:50;;;;;;;66.60;27.60;;;;;;;;;;5023502;28;20294;-65
2022/01/10 06:08:16;;;;;;;72.33;29.13;;;;;;;;;;5030135;28;20319;-64
2022/01/10 06:10:42;;;;;;;69.73;30.03;;;;;;;;;;5030940;28;20384;-64
2022/01/10 06:13:08;;;;;;;36.40;19.90;;;;;;;;;;5022928;28;20386;-65
2022/01/10 06:15:34;;;;;;;43.80;19.43;;;;;;;;;;5031231;28;20355;-64
2022/01/10 06:18:00;;;;;;;69.83;25.77;;;;;;;;;;5030726;28;20722;-64
2022/01/10 06:20:26;;;;;;;53.60;21.83;;;;;;;;;;5025316;28;20336;-65
2022/01/10 06:22:52;;;;;;;52.27;22.53;;;;;;;;;;5028024;28;20140;-64
2022/01/10 06:25:20;;;;;;;50.03;23.90;;;;;;;;;;5022573;28;20712;-64
2022/01/10 06:27:46;;;;;;;63.43;26.77;;;;;;;;;;5030565;28;20315;-65
2022/01/10 06:30:12;;;;;;;60.73;24.67;;;;;;;;;;5030677;28;20292;-64
2022/01/10 06:32:38;;;;;;;55.13;27.47;;;;;;;;;;5030383;28;20292;-65
2022/01/10 06:35:05;;;;;;;66.93;27.40;;;;;;;;;;5032343;28;20288;-64
2022/01/10 06:37:31;;;;;;;57.63;25.13;;;;;;;;;;5024640;28;20829;-64
2022/01/10 06:39:57;;;;;;;48.77;24.93;;;;;;;;;;5011686;28;20292;-64
2022/01/10 06:42:23;;;;;;;63.67;25.93;;;;;;;;;;5010658;28;20281;-65
2022/01/10 06:44:49;;;;;;;67.83;31.57;;;;;;;;;;5015372;28;20304;-65
2022/01/10 06:47:15;;;;;;;63.80;31.03;;;;;;;;;;5025744;28;20309;-64
2022/01/10 06:49:41;;;;;;;61.33;27.30;;;;;;;;;;5029560;28;20293;-64
2022/01/10 06:52:07;;;;;;;65.80;29.50;;;;;;;;;;5029939;28;20292;-64
2022/01/10 06:54:33;;;;;;;68.17;30.00;;;;;;;;;;5030342;28;20292;-65
2022/01/10 06:56:59;;;;;;;56.93;25.30;;;;;;;;;;5030561;28;20365;-65
2022/01/10 06:59:26;;;;;;;57.20;26.23;;;;;;;;;;5030300;28;20734;-64
2022/01/10 07:01:53;;;;;;;61.17;27.20;;;;;;;;;;5025848;28;20650;-65
2022/01/10 07:04:19;;;;;;;59.27;29.37;;;;;;;;;;5018063;28;20367;-64
2022/01/10 07:06:46;;;;;;;60.43;29.00;;;;;;;;;;5020353;28;21053;-65
2022/01/10 07:09:12;;;;;;;60.77;27.67;;;;;;;;;;5023250;28;20809;-64
2022/01/10 07:11:38;;;;;;;53.67;27.07;;;;;;;;;;5025470;28;20292;-64
2022/01/10 07:14:04;;;;;;;60.57;27.50;;;;;;;;;;5021732;28;20077;-64
2022/01/10 07:16:30;;;;;;;63.40;30.47;;;;;;;;;;5027601;28;20300;-65
2022/01/10 07:18:56;;;;;;;65.93;30.43;;;;;;;;;;5031597;28;20378;-65
2022/01/10 07:21:22;;;;;;;61.73;31.07;;;;;;;;;;5041190;28;20288;-65
2022/01/10 07:23:49;;;;;;;60.93;29.43;;;;;;;;;;5030314;28;20288;-65
2022/01/10 07:26:15;;;;;;;66.00;32.97;;;;;;;;;;5026435;28;20303;-65
2022/01/10 07:28:41;;;;;;;59.97;27.27;;;;;;;;;;5028981;28;20323;-64
2022/01/10 07:31:07;;;;;;;65.10;27.07;;;;;;;;;;5030792;28;20288;-65
2022/01/10 07:33:34;;;;;;;56.97;30.90;;;;;;;;;;5030672;28;20283;-65
2022/01/10 07:36:01;;;;;;;58.73;30.67;;;;;;;;;;5029141;28;20292;-65
2022/01/10 07:38:27;;;;;;;57.83;28.43;;;;;;;;;;5029765;28;20292;-64
2022/01/10 07:40:53;;;;;;;65.33;28.87;;;;;;;;;;5030581;28;20284;-65
2022/01/10 07:43:19;;;;;;;65.33;26.90;;;;;;;;;;5029736;28;20284;-65
2022/01/10 07:45:45;;;;;;;59.53;29.23;;;;;;;;;;5035508;28;20067;-66
2022/01/10 07:48:11;;;;;;;70.10;29.60;;;;;;;;;;5028876;28;20813;-64
2022/01/10 07:50:37;;;;;;;63.13;31.37;;;;;;;;;;5029121;28;20300;-64
2022/01/10 07:53:03;;;;;;;73.60;34.70;;;;;;;;;;5020493;28;20636;-64
2022/01/10 07:55:29;;;;;;;76.10;34.30;;;;;;;;;;5028501;28;20836;-64
2022/01/10 07:57:55;;;;;;;66.80;34.33;;;;;;;;;;5021367;28;20299;-64
2022/01/10 08:00:21;;;;;;;82.57;37.27;;;;;;;;;;5021249;28;20797;-65
2022/01/10 08:02:47;;;;;;;76.80;36.77;;;;;;;;;;5027516;28;20307;-65
2022/01/10 08:05:13;;;;;;;69.17;32.20;;;;;;;;;;5027509;28;20319;-64
2022/01/10 08:07:39;;;;;;;66.13;33.73;;;;;;;;;;5028217;28;20407;-65
2022/01/10 08:10:06;;;;;;;72.83;36.37;;;;;;;;;;5039964;28;20382;-64
2022/01/10 08:12:32;;;;;;;77.97;34.93;;;;;;;;;;5049256;28;20045;-65
2022/01/10 08:14:58;;;;;;;75.00;36.47;;;;;;;;;;5039596;28;20399;-64
2022/01/10 08:17:24;;;;;;;78.00;40.87;;;;;;;;;;5036167;28;20333;-65
2022/01/10 08:19:50;;;;;;;79.77;43.77;;;;;;;;;;5027956;28;20136;-64
2022/01/10 08:22:16;;;;;;;81.43;40.27;;;;;;;;;;5029442;28;20394;-65
2022/01/10 08:24:42;;;;;;;74.90;38.23;;;;;;;;;;5028608;28;20411;-65
2022/01/10 08:27:08;;;;;;;74.40;36.97;;;;;;;;;;5028169;28;20308;-65
2022/01/10 08:29:34;;;;;;;80.53;42.67;;;;;;;;;;5028372;28;20383;-65
2022/01/10 08:32:00;;;;;;;92.27;46.23;;;;;;;;;;5028730;28;20482;-65
2022/01/10 08:34:26;;;;;;;97.73;46.53;;;;;;;;;;5028029;28;20046;-65
2022/01/10 08:36:54;;;;;;;85.73;44.73;;;;;;;;;;5028329;28;20391;-65
2022/01/10 08:39:20;;;;;;;89.53;46.67;;;;;;;;;;5028119;28;20280;-64
2022/01/10 08:41:46;;;;;;;91.50;46.30;;;;;;;;;;5027287;28;21239;-64
2022/01/10 08:44:14;;;;;;;101.57;47.40;;;;;;;;;;5033106;28;20283;-64
2022/01/10 08:46:40;;;;;;;105.50;49.60;;;;;;;;;;5027906;28;20300;-65
2022/01/10 08:49:06;;;;;;;99.40;51.23;;;;;;;;;;5028240;28;20323;-64
2022/01/10 08:51:34;;;;;;;102.70;53.23;;;;;;;;;;5028218;28;20311;-65
2022/01/10 08:54:01;;;;;;;120.17;55.53;;;;;;;;;;5027268;28;20128;-65
2022/01/10 08:56:27;;;;;;;117.17;56.07;;;;;;;;;;5036510;28;20304;-65
2022/01/10 08:58:53;;;;;;;124.37;55.83;;;;;;;;;;5027796;28;20649;-65
2022/01/10 09:01:21;;;;;;;111.33;51.63;;;;;;;;;;5026171;28;20304;-65
2022/01/10 09:03:47;;;;;;;117.30;53.83;;;;;;;;;;5028920;28;20316;-65
2022/01/10 09:06:13;;;;;;;108.50;53.73;;;;;;;;;;5028064;28;20861;-65
2022/01/10 09:08:41;;;;;;;123.40;56.63;;;;;;;;;;5027471;28;20336;-65
2022/01/10 09:11:07;;;;;;;119.30;54.77;;;;;;;;;;5026041;28;20311;-64
2022/01/10 09:13:33;;;;;;;118.30;57.00;;;;;;;;;;5024691;28;20312;-65
2022/01/10 09:16:02;;;;;;;120.10;56.50;;;;;;;;;;5025334;28;20854;-64
2022/01/10 09:18:28;;;;;;;135.10;57.13;;;;;;;;;;5025883;28;20806;-65
2022/01/10 09:20:55;;;;;;;137.97;58.07;;;;;;;;;;5026959;28;20303;-65
2022/01/10 09:23:21;;;;;;;138.73;59.03;;;;;;;;;;5025177;28;20300;-64
2022/01/10 09:25:49;;;;;;;154.60;64.27;;;;;;;;;;5025212;28;20296;-65
2022/01/10 09:28:15;;;;;;;164.07;67.97;;;;;;;;;;5026644;28;20377;-65
2022/01/10 09:30:41;;;;;;;138.20;62.80;;;;;;;;;;5018570;28;20427;-64
2022/01/10 09:33:07;;;;;;;148.43;68.57;;;;;;;;;;5026644;28;20318;-65
2022/01/10 09:35:33;;;;;;;158.97;66.83;;;;;;;;;;5025645;28;20326;-65
2022/01/10 09:38:00;;;;;;;174.93;72.43;;;;;;;;;;5025898;28;20296;-65
2022/01/10 09:40:26;;;;;;;208.13;82.03;;;;;;;;;;5024452;28;20386;-64
2022/01/10 09:42:52;;;;;;;149.07;68.77;;;;;;;;;;5025411;28;20330;-65
2022/01/10 09:45:18;;;;;;;149.23;68.70;;;;;;;;;;5011942;28;20647;-65
2022/01/10 09:47:44;;;;;;;145.40;71.20;;;;;;;;;;5025353;28;20316;-65
2022/01/10 09:50:11;;;;;;;137.13;66.57;;;;;;;;;;5024167;28;20300;-65
2022/01/10 09:52:38;;;;;;;144.60;64.53;;;;;;;;;;5025609;28;20296;-64
2022/01/10 09:55:05;;;;;;;146.27;65.10;;;;;;;;;;5018411;28;20304;-65
2022/01/10 09:57:31;;;;;;;131.87;62.93;;;;;;;;;;5018614;28;20327;-65
2022/01/10 09:59:57;;;;;;;136.33;64.90;;;;;;;;;;5020816;28;20300;-65
2022/01/10 10:02:29;;;;;;;118.07;59.17;;;;;;;;;;5025295;28;20300;-66
2022/01/10 10:04:55;;;;;;;122.10;63.50;;;;;;;;;;5023928;28;20305;-66
2022/01/10 10:07:23;;;;;;;126.23;66.57;;;;;;;;;;5024213;28;20320;-65
2022/01/10 10:09:49;;;;;;;127.73;65.33;;;;;;;;;;5018994;28;20084;-65
2022/01/10 10:12:15;;;;;;;133.53;66.67;;;;;;;;;;5025281;28;20750;-66
2022/01/10 10:14:44;;;;;;;131.13;64.27;;;;;;;;;;5026539;28;20045;-65
2022/01/10 10:17:17;;;;;;;128.70;66.63;;;;;;;;;;5018821;28;20303;-66
2022/01/10 10:19:43;;;;;;;151.10;73.87;;;;;;;;;;5024757;28;21051;-66
2022/01/10 10:22:09;;;;;;;126.00;70.43;;;;;;;;;;5024941;28;20296;-66
2022/01/10 10:24:35;;;;;;;116.00;66.20;;;;;;;;;;5026679;28;20300;-66
2022/01/10 10:27:01;;;;;;;153.93;79.37;;;;;;;;;;5026167;28;20053;-66
2022/01/10 10:29:27;;;;;;;125.33;69.97;;;;;;;;;;5024729;28;20314;-67
2022/01/10 10:31:54;;;;;;;132.97;71.63;;;;;;;;;;5029899;28;20304;-66
2022/01/10 10:34:22;;;;;;;156.67;79.17;;;;;;;;;;5025671;28;20323;-65
2022/01/10 10:37:05;;;;;;;212.43;91.20;;;;;;;;;;5027872;28;20383;-66
2022/01/10 10:39:31;;;;;;;109.90;66.20;;;;;;;;;;5028356;28;20315;-66
2022/01/10 10:41:59;;;;;;;104.63;61.07;;;;;;;;;;5029252;28;20077;-66
2022/01/10 10:44:25;;;;;;;90.53;57.60;;;;;;;;;;5029238;28;20042;-66
2022/01/10 10:46:51;;;;;;;110.27;67.20;;;;;;;;;;5029805;28;20041;-66
2022/01/10 10:49:20;;;;;;;92.83;55.20;;;;;;;;;;5028521;28;20042;-66
2022/01/10 10:51:49;;;;;;;78.83;50.57;;;;;;;;;;5028688;28;20080;-66
2022/01/10 10:54:17;;;;;;;72.20;46.87;;;;;;;;;;5029325;28;20068;-66
2022/01/10 10:56:43;;;;;;;69.10;43.13;;;;;;;;;;5019064;28;20100;-67
2022/01/10 10:59:11;;;;;;;65.20;41.73;;;;;;;;;;5028224;28;20045;-66
2022/01/10 11:01:37;;;;;;;69.47;43.37;;;;;;;;;;5027570;28;20049;-67
2022/01/10 11:04:04;;;;;;;55.37;36.47;;;;;;;;;;5029151;28;20399;-68
2022/01/10 11:06:31;;;;;;;44.03;32.30;;;;;;;;;;5028830;28;20060;-67
2022/01/10 11:08:58;;;;;;;46.23;30.70;;;;;;;;;;5033029;28;20103;-68
2022/01/10 11:11:24;;;;;;;38.50;26.20;;;;;;;;;;5016644;28;20037;-68
2022/01/10 11:13:51;;;;;;;37.30;24.07;;;;;;;;;;5030936;28;20411;-68
2022/01/10 11:16:17;;;;;;;31.40;20.23;;;;;;;;;;5026772;28;20053;-68
2022/01/10 11:18:45;;;;;;;27.43;18.87;;;;;;;;;;5022687;28;20045;-68
2022/01/10 11:21:11;;;;;;;96.10;30.87;;;;;;;;;;5023819;28;20112;-67
2022/01/10 11:23:43;;;;;;;43.20;21.57;;;;;;;;;;5022849;28;20041;-67
2022/01/10 11:26:09;;;;;;;27.20;17.20;;;;;;;;;;5025107;28;20068;-68
2022/01/10 11:28:39;;;;;;;28.90;16.27;;;;;;;;;;5026727;28;20055;-67
2022/01/10 11:31:07;;;;;;;28.13;16.13;;;;;;;;;;5027891;28;20072;-67
2022/01/10 11:33:35;;;;;;;27.43;15.67;;;;;;;;;;5026440;28;20049;-67
2022/01/10 11:36:02;;;;;;;27.93;15.80;;;;;;;;;;5027718;28;20467;-67
2022/01/10 11:38:31;;;;;;;31.70;17.30;;;;;;;;;;5028919;28;20075;-68
2022/01/10 11:40:57;;;;;;;37.13;19.07;;;;;;;;;;5027917;28;20053;-67
2022/01/10 11:43:31;;;;;;;22.60;15.53;;;;;;;;;;5026890;28;20523;-68
2022/01/10 11:46:14;;;;;;;33.23;17.13;;;;;;;;;;5025379;28;20989;-67
2022/01/10 11:48:45;;;;;;;28.25;17.35;;;;;;;;;;5024208;28;20081;-67
2022/01/10 11:51:15;;;;;;;39.83;18.50;;;;;;;;;;5023766;28;20056;-67
2022/01/10 11:53:44;;;;;;;27.87;15.83;;;;;;;;;;5025618;28;20049;-68
2022/01/10 11:56:27;;;;;;;27.40;17.43;;;;;;;;;;5027392;28;20051;-68
2022/01/10 11:59:08;;;;;;;32.78;18.17;;;;;;;;;;5027035;28;20124;-68
2022/01/10 12:01:35;;;;;;;27.50;15.87;;;;;;;;;;5026651;28;20064;-67
2022/01/10 12:04:02;;;;;;;24.70;15.57;;;;;;;;;;5027923;28;20083;-67
2022/01/10 12:06:28;;;;;;;22.80;14.60;;;;;;;;;;5026762;28;20033;-67
2022/01/10 12:08:54;;;;;;;24.70;15.00;;;;;;;;;;5027510;28;20049;-67
2022/01/10 12:11:24;;;;;;;102.40;26.13;;;;;;;;;;5024298;28;20033;-67
2022/01/10 12:13:51;;;;;;;49.70;17.03;;;;;;;;;;5023972;28;20049;-67
2022/01/10 12:16:18;;;;;;;27.13;15.20;;;;;;;;;;5020979;28;20504;-67
2022/01/10 12:18:44;;;;;;;102.73;20.07;;;;;;;;;;5023066;28;20045;-68
2022/01/10 12:21:10;;;;;;;26.67;15.43;;;;;;;;;;5021772;28;20095;-67
2022/01/10 12:23:36;;;;;;;28.67;16.57;;;;;;;;;;5022233;28;20081;-67
2022/01/10 12:26:02;;;;;;;26.40;14.90;;;;;;;;;;5023632;28;20105;-67
2022/01/10 12:28:28;;;;;;;26.77;15.67;;;;;;;;;;5020965;28;20060;-67
2022/01/10 12:30:57;;;;;;;22.23;14.10;;;;;;;;;;5022938;28;20411;-67
2022/01/10 12:33:23;;;;;;;29.67;16.00;;;;;;;;;;5021505;28;20073;-68
2022/01/10 12:35:49;;;;;;;27.00;15.50;;;;;;;;;;5020148;28;20077;-67
2022/01/10 12:38:19;;;;;;;24.40;15.20;;;;;;;;;;5023160;28;20037;-67
2022/01/10 12:40:45;;;;;;;25.50;14.37;;;;;;;;;;5018326;28;20048;-68
2022/01/10 12:43:11;;;;;;;25.83;13.97;;;;;;;;;;5020924;28;20046;-67
2022/01/10 12:45:38;;;;;;;30.83;15.57;;;;;;;;;;5021666;28;20048;-67
2022/01/10 12:48:05;;;;;;;21.23;14.67;;;;;;;;;;5021837;28;20056;-67
2022/01/10 12:50:32;;;;;;;25.07;15.83;;;;;;;;;;5022880;28;20111;-68
2022/01/10 12:52:58;;;;;;;22.87;14.57;;;;;;;;;;5020972;28;20539;-68
2022/01/10 12:55:24;;;;;;;22.80;16.23;;;;;;;;;;5022190;28;20103;-67
2022/01/10 12:57:50;;;;;;;22.90;14.27;;;;;;;;;;5020764;28;20114;-68
2022/01/10 13:00:17;;;;;;;26.67;16.03;;;;;;;;;;5021231;28;20042;-68
2022/01/10 13:02:43;;;;;;;19.07;14.50;;;;;;;;;;5021970;28;20046;-68
2022/01/10 13:05:09;;;;;;;24.63;13.73;;;;;;;;;;5019464;28;20085;-68
2022/01/10 13:07:36;;;;;;;21.83;14.93;;;;;;;;;;5022965;28;20045;-68
2022/01/10 13:10:06;;;;;;;27.27;15.03;;;;;;;;;;5026040;28;20984;-68
2022/01/10 13:12:33;;;;;;;25.17;15.47;;;;;;;;;;5026972;28;20054;-68
2022/01/10 13:15:07;;;;;;;28.57;16.27;;;;;;;;;;5024438;28;20452;-68
2022/01/10 13:17:34;;;;;;;30.63;16.57;;;;;;;;;;5024888;28;20058;-68
2022/01/10 13:20:01;;;;;;;27.10;15.80;;;;;;;;;;5023362;28;20058;-68
2022/01/10 13:22:32;;;;;;;20.23;14.07;;;;;;;;;;5026325;28;20517;-68
2022/01/10 13:24:58;;;;;;;26.10;15.97;;;;;;;;;;5025194;28;20092;-68
2022/01/10 13:27:32;;;;;;;29.10;14.93;;;;;;;;;;5026460;28;20423;-68
2022/01/10 13:30:05;;;;;;;23.90;14.83;;;;;;;;;;5025142;28;20052;-68
2022/01/10 13:32:32;;;;;;;29.67;15.83;;;;;;;;;;5023128;28;20076;-68
2022/01/10 13:35:01;;;;;;;22.20;13.43;;;;;;;;;;5021553;28;20053;-68
2022/01/10 13:37:30;;;;;;;23.97;14.43;;;;;;;;;;5022488;28;20805;-69
2022/01/10 13:40:00;;;;;;;27.63;15.30;;;;;;;;;;5024705;28;20073;-68
2022/01/10 13:42:26;;;;;;;23.87;15.63;;;;;;;;;;5024845;28;20040;-68
2022/01/10 13:44:55;;;;;;;20.57;15.23;;;;;;;;;;5024242;28;20050;-69
2022/01/10 13:47:21;;;;;;;20.73;15.40;;;;;;;;;;5021051;28;20259;-68
2022/01/10 13:49:47;;;;;;;25.27;16.17;;;;;;;;;;5021177;28;20682;-69
2022/01/10 13:52:15;;;;;;;25.93;16.57;;;;;;;;;;5025252;28;20038;-68
2022/01/10 13:54:41;;;;;;;23.93;15.50;;;;;;;;;;5023106;28;20046;-69
2022/01/10 13:57:22;;;;;;;23.37;16.17;;;;;;;;;;5020051;28;20845;-68
2022/01/10 13:59:49;;;;;;;19.33;14.47;;;;;;;;;;5020945;28;20116;-69
2022/01/10 14:02:16;;;;;;;23.43;16.57;;;;;;;;;;5022925;28;20128;-69
2022/01/10 14:04:44;;;;;;;25.23;16.40;;;;;;;;;;5025729;28;20045;-69
2022/01/10 14:07:11;;;;;;;20.87;15.07;;;;;;;;;;5039021;28;20152;-69
2022/01/10 14:09:38;;;;;;;23.27;16.53;;;;;;;;;;5026485;28;20514;-69
2022/01/10 14:12:04;;;;;;;20.47;15.77;;;;;;;;;;5028086;28;20045;-70
2022/01/10 14:14:30;;;;;;;25.77;17.43;;;;;;;;;;5028928;28;20049;-69
2022/01/10 14:16:57;;;;;;;24.10;16.57;;;;;;;;;;5028517;28;20142;-69
2022/01/10 14:19:23;;;;;;;19.87;16.10;;;;;;;;;;5027367;28;20037;-69
2022/01/10 14:21:49;;;;;;;25.47;18.90;;;;;;;;;;5030069;28;20470;-68
2022/01/10 14:24:19;;;;;;;21.37;16.80;;;;;;;;;;5024976;28;20042;-69
2022/01/10 14:26:46;;;;;;;24.20;18.90;;;;;;;;;;5026268;28;20124;-68